Time;durP1;ratioP1;P1;durP2;ratioP2;P2;SDS_P1;SDS_P2;PMS_P1;PMS_P2;Temp;Humidity;BMP_temperature;BMP_pressure;BME280_temperature;BME280_humidity;BME280_pressure;Samples;Min_cycle;Max_cycle;Signal;HPM_P1;HPM_P2
2022/05/17 00:01:57;;;;;;;23.23;12.73;;;16.40;99.90;;;;;;5128759;27;20398;-81
2022/05/17 00:04:23;;;;;;;25.83;12.90;;;16.30;99.90;;;;;;5128412;27;20410;-78
2022/05/17 00:06:49;;;;;;;23.47;12.67;;;16.30;99.90;;;;;;5128810;27;20391;-81
2022/05/17 00:09:17;;;;;;;25.23;12.27;;;16.20;99.90;;;;;;5131775;27;20427;-80
2022/05/17 00:11:47;;;;;;;25.40;12.57;;;16.20;99.90;;;;;;5124337;27;20933;-81
2022/05/17 00:14:14;;;;;;;24.85;12.68;;;16.10;99.90;;;;;;5131781;27;20435;-80
2022/05/17 00:16:42;;;;;;;23.77;11.70;;;16.10;99.90;;;;;;5127863;27;20424;-79
2022/05/17 00:19:08;;;;;;;24.15;12.10;;;16.00;99.90;;;;;;5140319;27;20441;-80
2022/05/17 00:21:36;;;;;;;25.92;12.25;;;16.00;99.90;;;;;;5139161;27;20426;-80
2022/05/17 00:24:02;;;;;;;25.60;11.65;;;15.90;99.90;;;;;;5128914;27;20917;-80
2022/05/17 00:26:28;;;;;;;23.00;12.35;;;15.90;99.90;;;;;;5144087;27;20393;-80
2022/05/17 00:28:54;;;;;;;22.08;11.80;;;15.90;99.90;;;;;;5149442;27;20438;-80
2022/05/17 00:31:19;;;;;;;24.00;12.23;;;15.80;99.90;;;;;;5149075;27;20906;-80
2022/05/17 00:33:45;;;;;;;22.87;12.00;;;15.80;99.90;;;;;;5126203;27;20390;-80
2022/05/17 00:36:11;;;;;;;25.75;11.95;;;15.80;99.90;;;;;;5128375;27;20888;-80
2022/05/17 00:38:37;;;;;;;19.67;11.73;;;15.70;99.90;;;;;;5110162;28;20387;-79
2022/05/17 00:41:02;;;;;;;22.77;11.73;;;15.70;99.90;;;;;;5128737;27;20470;-79
2022/05/17 00:46:30;;;;;;;23.98;11.68;;;15.60;99.90;;;;;;5132217;27;20472;-80
2022/05/17 00:48:56;;;;;;;21.23;11.37;;;15.60;99.90;;;;;;5131975;27;20403;-79
2022/05/17 00:51:26;;;;;;;21.07;11.53;;;15.60;99.90;;;;;;5141572;27;21211;-80
2022/05/17 00:53:56;;;;;;;24.27;11.50;;;15.50;99.90;;;;;;5134537;27;20393;-79
2022/05/17 00:56:23;;;;;;;20.25;11.38;;;15.50;99.90;;;;;;5143300;27;20417;-80
2022/05/17 00:58:54;;;;;;;23.45;11.00;;;15.50;99.90;;;;;;5141709;27;20405;-80
2022/05/17 01:01:23;;;;;;;22.33;10.97;;;15.40;99.90;;;;;;5124447;27;20412;-80
2022/05/17 01:03:49;;;;;;;21.33;10.98;;;15.40;99.90;;;;;;5152907;27;20399;-79
2022/05/17 01:06:16;;;;;;;21.55;10.82;;;15.40;99.90;;;;;;5117638;27;20905;-79
2022/05/17 01:08:42;;;;;;;22.70;10.30;;;15.30;99.90;;;;;;5131990;27;20396;-80
2022/05/17 01:11:08;;;;;;;20.42;10.05;;;15.30;99.90;;;;;;5131936;27;20962;-80
2022/05/17 01:16:18;;;;;;;19.60;9.35;;;15.20;99.90;;;;;;5152635;27;20393;-80
2022/05/17 01:18:44;;;;;;;23.77;9.68;;;15.20;99.90;;;;;;5116909;27;20397;-80
2022/05/17 01:21:11;;;;;;;23.90;9.63;;;15.10;99.90;;;;;;5152330;27;20408;-80
2022/05/17 01:23:37;;;;;;;22.73;9.93;;;15.20;99.90;;;;;;5133773;27;20397;-80
2022/05/17 01:26:03;;;;;;;22.85;9.57;;;15.10;99.90;;;;;;5134301;27;20407;-80
2022/05/17 01:28:35;;;;;;;21.67;9.10;;;15.10;99.90;;;;;;5151839;27;20405;-79
2022/05/17 01:31:07;;;;;;;23.25;10.38;;;15.10;99.90;;;;;;5123850;27;21018;-79
2022/05/17 01:33:34;;;;;;;22.38;9.88;;;15.10;99.90;;;;;;5116489;27;20465;-80
2022/05/17 01:36:02;;;;;;;20.27;9.68;;;15.00;99.90;;;;;;5139838;27;20447;-80
2022/05/17 01:38:28;;;;;;;21.52;9.85;;;15.00;99.90;;;;;;5147516;27;20406;-80
2022/05/17 01:40:54;;;;;;;20.33;9.35;;;15.00;99.90;;;;;;5131593;27;20395;-80
2022/05/17 01:43:20;;;;;;;20.40;9.70;;;15.00;99.90;;;;;;5140671;27;20405;-80
2022/05/17 01:45:46;;;;;;;22.80;9.65;;;15.00;99.90;;;;;;5133758;27;20412;-80
2022/05/17 01:48:12;;;;;;;21.67;10.20;;;15.00;99.90;;;;;;5151883;27;20947;-79
2022/05/17 01:50:38;;;;;;;23.47;9.73;;;15.00;99.90;;;;;;5152101;27;20767;-79
2022/05/17 01:53:04;;;;;;;22.15;9.52;;;14.90;99.90;;;;;;5131990;27;20402;-79
2022/05/17 01:55:30;;;;;;;24.37;10.00;;;14.90;99.90;;;;;;5130331;27;20431;-80
2022/05/17 01:57:56;;;;;;;23.67;10.63;;;15.00;99.90;;;;;;5131109;27;20429;-79
2022/05/17 02:00:23;;;;;;;22.35;10.57;;;14.90;99.90;;;;;;5131150;27;20937;-79
2022/05/17 02:02:50;;;;;;;21.85;10.50;;;14.90;99.90;;;;;;5130958;27;20399;-79
2022/05/17 02:05:17;;;;;;;23.83;10.98;;;14.80;99.90;;;;;;5130566;27;20489;-80
2022/05/17 02:07:43;;;;;;;22.65;11.07;;;14.90;99.90;;;;;;5130842;27;20394;-80
2022/05/17 02:10:09;;;;;;;23.75;11.07;;;14.90;99.90;;;;;;5132516;27;20532;-80
2022/05/17 02:12:35;;;;;;;22.33;11.13;;;14.80;99.90;;;;;;5151357;27;20889;-80
2022/05/17 02:15:03;;;;;;;24.15;11.38;;;14.80;99.90;;;;;;5151310;27;20397;-80
2022/05/17 02:17:28;;;;;;;23.27;11.70;;;14.80;99.90;;;;;;5151306;27;20397;-79
2022/05/17 02:19:54;;;;;;;23.83;11.23;;;14.70;99.90;;;;;;5151019;27;20456;-79
2022/05/17 02:22:19;;;;;;;25.57;11.10;;;14.70;99.90;;;;;;5115302;27;20404;-80
2022/05/17 02:24:45;;;;;;;20.25;10.68;;;14.70;99.90;;;;;;5151105;27;20439;-80
2022/05/17 02:27:11;;;;;;;23.17;11.50;;;14.70;99.90;;;;;;5151248;27;20450;-80
2022/05/17 02:29:37;;;;;;;27.60;11.43;;;14.70;99.90;;;;;;5150980;27;20480;-79
2022/05/17 02:32:03;;;;;;;28.63;11.73;;;14.70;99.90;;;;;;5151063;27;20389;-80
2022/05/17 02:34:29;;;;;;;22.25;11.25;;;14.60;99.90;;;;;;5132690;27;20433;-79
2022/05/17 02:36:54;;;;;;;25.80;10.68;;;14.60;99.90;;;;;;5132534;27;21110;-79
2022/05/17 02:39:20;;;;;;;27.48;12.20;;;14.60;99.90;;;;;;5146044;27;20411;-80
2022/05/17 02:41:45;;;;;;;25.70;11.13;;;14.60;99.90;;;;;;5122567;27;20885;-79
2022/05/17 02:44:11;;;;;;;24.67;11.93;;;14.50;99.90;;;;;;5137063;27;20405;-80
2022/05/17 02:46:37;;;;;;;25.52;12.30;;;14.50;99.90;;;;;;5150752;27;21017;-79
2022/05/17 02:49:04;;;;;;;25.37;12.03;;;14.50;99.90;;;;;;5139069;27;20410;-79
2022/05/17 02:51:30;;;;;;;26.63;12.18;;;14.50;99.90;;;;;;5129661;27;20509;-79
2022/05/17 02:53:56;;;;;;;25.63;11.63;;;14.50;99.90;;;;;;5130180;27;20394;-80
2022/05/17 02:56:21;;;;;;;24.67;11.60;;;14.50;99.90;;;;;;5130812;27;20421;-80
2022/05/17 02:58:47;;;;;;;22.83;11.73;;;14.40;99.90;;;;;;5150494;27;20409;-79
2022/05/17 03:01:12;;;;;;;25.98;12.20;;;14.40;99.90;;;;;;5150309;27;20762;-79
2022/05/17 03:03:40;;;;;;;23.00;11.33;;;14.40;99.90;;;;;;5132242;27;20405;-80
2022/05/17 03:06:08;;;;;;;26.02;11.77;;;14.40;99.90;;;;;;5150553;27;20396;-79
2022/05/17 03:08:34;;;;;;;25.43;12.07;;;14.40;99.90;;;;;;5149487;27;20401;-79
2022/05/17 03:10:59;;;;;;;26.23;11.60;;;14.40;99.90;;;;;;5131712;27;20496;-80
2022/05/17 03:13:25;;;;;;;27.13;12.30;;;14.30;99.90;;;;;;5130409;27;20441;-79
2022/05/17 03:15:51;;;;;;;23.17;12.13;;;14.30;99.90;;;;;;5129062;27;20426;-80
2022/05/17 03:18:17;;;;;;;22.42;12.07;;;14.30;99.90;;;;;;5111151;27;20489;-79
2022/05/17 03:20:43;;;;;;;27.45;12.35;;;14.30;99.90;;;;;;5129435;27;20490;-80
2022/05/17 03:23:09;;;;;;;25.53;11.90;;;14.30;99.90;;;;;;5129419;27;20752;-79
2022/05/17 03:25:35;;;;;;;25.83;12.30;;;14.30;99.90;;;;;;5129615;27;20451;-79
2022/05/17 03:28:01;;;;;;;25.80;11.93;;;14.20;99.90;;;;;;5110659;27;20406;-80
2022/05/17 03:30:27;;;;;;;25.60;12.50;;;14.20;99.90;;;;;;5129077;27;20430;-80
2022/05/17 03:32:53;;;;;;;23.92;11.50;;;14.20;99.90;;;;;;5110819;27;20414;-80
2022/05/17 03:35:19;;;;;;;27.45;11.65;;;14.20;99.90;;;;;;5129393;27;20482;-79
2022/05/17 03:37:45;;;;;;;24.10;11.65;;;14.10;99.90;;;;;;5111033;27;20447;-79
2022/05/17 03:40:11;;;;;;;26.17;11.87;;;14.20;99.90;;;;;;5129220;27;20394;-80
2022/05/17 03:42:38;;;;;;;23.35;11.68;;;14.20;99.90;;;;;;5128752;27;20427;-79
2022/05/17 03:45:05;;;;;;;24.38;12.10;;;14.10;99.90;;;;;;5129025;27;20902;-79
2022/05/17 03:47:31;;;;;;;24.70;11.50;;;14.10;99.90;;;;;;5130117;27;20395;-79
2022/05/17 03:49:57;;;;;;;26.75;11.82;;;14.20;99.90;;;;;;5149812;27;20416;-80
2022/05/17 03:52:27;;;;;;;23.98;11.48;;;14.10;99.90;;;;;;5149628;27;20397;-79
2022/05/17 03:54:57;;;;;;;20.98;10.90;;;14.10;99.90;;;;;;5149491;27;20800;-79
2022/05/17 03:57:28;;;;;;;26.20;11.10;;;14.10;99.90;;;;;;5150018;27;20415;-79
2022/05/17 03:59:54;;;;;;;24.55;11.13;;;14.10;99.90;;;;;;5149812;27;20397;-79
2022/05/17 04:02:21;;;;;;;24.83;12.00;;;14.10;99.90;;;;;;5149696;27;20435;-79
2022/05/17 04:04:50;;;;;;;22.80;11.10;;;14.20;99.90;;;;;;5131372;27;20928;-79
2022/05/17 04:07:16;;;;;;;23.95;11.32;;;14.20;99.90;;;;;;5149448;27;20401;-79
2022/05/17 04:09:42;;;;;;;25.23;11.32;;;14.20;99.90;;;;;;5149804;27;20453;-79
2022/05/17 04:12:08;;;;;;;21.93;10.57;;;14.10;99.90;;;;;;5149797;27;20412;-79
2022/05/17 04:14:34;;;;;;;23.77;11.23;;;14.20;99.90;;;;;;5149370;27;20480;-79
2022/05/17 04:16:59;;;;;;;21.88;11.07;;;14.20;99.90;;;;;;5149825;27;20500;-79
2022/05/17 04:19:25;;;;;;;22.87;11.30;;;14.20;99.90;;;;;;5133624;27;20392;-79
2022/05/17 04:21:50;;;;;;;24.98;11.52;;;14.20;99.90;;;;;;5153096;27;20400;-79
2022/05/17 04:24:16;;;;;;;25.13;10.65;;;14.30;99.90;;;;;;5153811;27;20970;-79
2022/05/17 04:26:42;;;;;;;25.37;11.30;;;14.30;99.90;;;;;;5135069;27;20401;-80
2022/05/17 04:29:08;;;;;;;23.25;10.82;;;14.30;99.90;;;;;;5153352;27;20538;-80
2022/05/17 04:31:35;;;;;;;20.05;9.98;;;14.30;99.90;;;;;;5153367;27;21100;-80
2022/05/17 04:34:02;;;;;;;21.23;10.43;;;14.30;99.90;;;;;;5153255;27;20912;-80
2022/05/17 04:36:28;;;;;;;21.42;10.98;;;14.40;99.90;;;;;;5152701;27;20401;-79
2022/05/17 04:38:53;;;;;;;24.43;11.23;;;14.40;99.90;;;;;;5153684;27;20740;-80
2022/05/17 04:41:19;;;;;;;25.35;11.38;;;14.40;99.90;;;;;;5135034;27;20412;-80
2022/05/17 04:43:46;;;;;;;20.33;10.00;;;14.40;99.90;;;;;;5152809;27;20400;-80
2022/05/17 04:46:12;;;;;;;25.00;10.85;;;14.50;99.90;;;;;;5152642;27;20393;-80
2022/05/17 04:48:38;;;;;;;19.45;10.10;;;14.50;99.90;;;;;;5141948;27;20752;-80
2022/05/17 04:51:11;;;;;;;21.30;10.20;;;14.50;99.90;;;;;;5132059;27;20429;-80
2022/05/17 04:53:39;;;;;;;21.42;9.80;;;14.50;99.90;;;;;;5132217;27;21180;-79
2022/05/17 04:56:06;;;;;;;21.30;9.80;;;14.60;99.90;;;;;;5142147;27;20421;-80
2022/05/17 04:58:32;;;;;;;18.60;9.88;;;14.60;99.90;;;;;;5143686;27;20397;-80
2022/05/17 05:00:58;;;;;;;22.23;10.50;;;14.70;99.90;;;;;;5140827;27;20390;-80
2022/05/17 05:03:24;;;;;;;23.38;9.40;;;14.70;99.90;;;;;;5132020;27;20402;-79
2022/05/17 05:05:50;;;;;;;22.02;9.82;;;14.80;99.90;;;;;;5113114;27;20405;-80
2022/05/17 05:08:16;;;;;;;17.33;9.07;;;14.90;99.90;;;;;;5152720;27;20405;-80
2022/05/17 05:10:44;;;;;;;20.25;9.27;;;15.00;99.90;;;;;;5116796;27;20424;-80
2022/05/17 05:13:17;;;;;;;18.70;9.07;;;15.00;99.90;;;;;;5145531;27;20403;-80
2022/05/17 05:15:43;;;;;;;18.30;8.60;;;15.10;99.90;;;;;;5113538;27;20458;-80
2022/05/17 05:18:10;;;;;;;17.80;8.37;;;15.20;99.90;;;;;;5113495;27;20829;-80
2022/05/17 05:20:36;;;;;;;19.38;8.60;;;15.20;99.90;;;;;;5095895;27;20489;-80
2022/05/17 05:23:02;;;;;;;19.40;8.30;;;15.30;99.90;;;;;;5132071;27;20451;-80
2022/05/17 05:25:28;;;;;;;14.73;7.22;;;15.30;99.90;;;;;;5113581;27;20411;-80
2022/05/17 05:27:54;;;;;;;19.13;7.90;;;15.40;99.90;;;;;;5131572;27;20407;-80
2022/05/17 05:30:21;;;;;;;17.20;7.57;;;15.40;99.90;;;;;;5119336;27;20474;-80
2022/05/17 05:32:47;;;;;;;17.48;7.72;;;15.50;99.90;;;;;;5152371;27;20830;-80
2022/05/17 05:35:15;;;;;;;16.63;7.50;;;15.60;99.90;;;;;;5133653;27;20933;-80
2022/05/17 05:37:40;;;;;;;17.48;7.65;;;15.60;99.90;;;;;;5152120;27;20439;-80
2022/05/17 05:40:08;;;;;;;20.63;8.13;;;15.60;99.90;;;;;;5152166;27;20926;-80
2022/05/17 05:42:34;;;;;;;18.20;7.90;;;15.60;99.90;;;;;;5151621;27;20424;-80
2022/05/17 05:44:59;;;;;;;17.07;7.53;;;15.60;99.90;;;;;;5152255;27;20429;-78
2022/05/17 05:47:26;;;;;;;18.45;7.85;;;15.70;99.90;;;;;;5151648;27;20385;-78
2022/05/17 05:49:51;;;;;;;17.42;7.57;;;15.70;99.90;;;;;;5116260;27;20421;-77
2022/05/17 05:52:18;;;;;;;17.53;6.80;;;15.70;99.90;;;;;;5143908;27;20418;-78
2022/05/17 05:54:44;;;;;;;19.97;7.37;;;15.80;99.90;;;;;;5146717;27;20540;-79
2022/05/17 05:57:10;;;;;;;16.65;6.45;;;15.80;99.90;;;;;;5150731;27;20417;-80
2022/05/17 05:59:35;;;;;;;17.65;6.78;;;15.80;99.90;;;;;;5134418;27;20443;-79
2022/05/17 06:02:01;;;;;;;17.98;6.30;;;15.90;99.90;;;;;;5137228;27;20498;-79
2022/05/17 06:04:27;;;;;;;13.93;6.60;;;15.90;99.90;;;;;;5130962;27;20492;-79
2022/05/17 06:06:54;;;;;;;16.85;6.32;;;16.00;99.90;;;;;;5151911;27;20449;-79
2022/05/17 06:09:20;;;;;;;17.58;6.22;;;16.10;99.90;;;;;;5133537;27;20397;-79
2022/05/17 06:11:45;;;;;;;17.20;6.17;;;16.20;99.90;;;;;;5150861;27;20443;-79
2022/05/17 06:14:11;;;;;;;13.38;5.72;;;16.30;99.90;;;;;;5133120;27;20882;-79
2022/05/17 06:16:36;;;;;;;20.03;6.27;;;16.40;99.90;;;;;;5146334;27;20548;-79
2022/05/17 06:19:02;;;;;;;17.63;6.00;;;16.40;99.90;;;;;;5144485;27;20819;-79
2022/05/17 06:21:28;;;;;;;15.52;6.05;;;16.50;99.90;;;;;;5151635;27;20575;-80
2022/05/17 06:23:54;;;;;;;15.07;5.75;;;16.60;99.90;;;;;;5146657;27;20755;-79
2022/05/17 06:26:19;;;;;;;16.63;6.20;;;16.60;99.90;;;;;;5151316;27;20453;-79
2022/05/17 06:28:45;;;;;;;16.77;5.35;;;16.70;99.90;;;;;;5152140;27;20047;-79
2022/05/17 06:31:11;;;;;;;15.02;5.75;;;16.70;99.90;;;;;;5152047;27;20038;-79
2022/05/17 06:33:39;;;;;;;14.82;5.20;;;16.80;99.90;;;;;;5151420;27;20496;-79
2022/05/17 06:36:05;;;;;;;14.85;4.68;;;16.80;99.90;;;;;;5151616;27;20526;-81
2022/05/17 06:38:31;;;;;;;;;;;16.80;99.90;;;;;;5152332;27;20153;-79
2022/05/17 06:40:57;;;;;;;;;;;16.90;99.90;;;;;;5133963;27;19944;-79
2022/05/17 06:43:22;;;;;;;;;;;16.90;99.90;;;;;;5152386;27;19919;-79
2022/05/17 06:45:48;;;;;;;;;;;16.90;99.90;;;;;;5151553;27;19926;-79
2022/05/17 06:48:14;;;;;;;;;;;17.00;99.90;;;;;;5132378;27;19919;-79
2022/05/17 06:50:39;;;;;;;;;;;17.00;99.90;;;;;;5122003;27;20741;-80
2022/05/17 06:53:07;;;;;;;;;;;17.00;99.90;;;;;;5150653;27;19919;-80
2022/05/17 06:55:32;;;;;;;;;;;17.10;99.90;;;;;;5149371;27;19927;-80
2022/05/17 06:57:58;;;;;;;;;;;17.20;99.90;;;;;;5150997;27;20028;-80
2022/05/17 07:00:23;;;;;;;;;;;17.10;99.90;;;;;;5151018;27;20251;-80
2022/05/17 07:02:49;;;;;;;;;;;17.20;99.90;;;;;;5150273;27;20075;-80
2022/05/17 07:05:14;;;;;;;;;;;17.30;99.90;;;;;;5127022;27;19919;-79
2022/05/17 07:07:40;;;;;;;;;;;17.30;99.90;;;;;;5151028;27;19987;-79
2022/05/17 07:13:09;;;;;;;;;;;17.50;99.90;;;;;;5152280;27;20441;-80
2022/05/17 07:15:35;;;;;;;;;;;17.60;99.90;;;;;;5150953;27;19922;-79
2022/05/17 07:18:00;;;;;;;;;;;17.70;99.90;;;;;;5151780;27;19919;-80
2022/05/17 07:20:27;;;;;;;;;;;17.70;99.90;;;;;;5151064;27;20387;-80
2022/05/17 07:22:52;;;;;;;;;;;17.70;99.90;;;;;;5149560;27;19968;-80
2022/05/17 07:25:18;;;;;;;;;;;17.70;99.90;;;;;;5132273;27;20524;-80
2022/05/17 07:27:43;;;;;;;;;;;17.70;99.90;;;;;;5142378;27;19919;-79
2022/05/17 07:30:09;;;;;;;;;;;17.70;99.90;;;;;;5144432;27;19919;-80
2022/05/17 07:32:35;;;;;;;;;;;17.80;99.90;;;;;;5124585;27;19919;-80
2022/05/17 07:35:00;;;;;;;;;;;17.80;99.90;;;;;;5141774;27;20329;-79
2022/05/17 07:37:26;;;;;;;;;;;18.00;99.90;;;;;;5144568;27;19970;-80
2022/05/17 07:39:52;;;;;;;;;;;18.00;99.90;;;;;;5151573;27;19926;-79
2022/05/17 07:42:17;;;;;;;;;;;18.10;99.90;;;;;;5151530;27;19919;-80
2022/05/17 07:44:43;;;;;;;;;;;18.30;99.90;;;;;;5150403;27;19919;-79
2022/05/17 07:47:08;;;;;;;;;;;18.30;99.90;;;;;;5133532;27;20010;-79
2022/05/17 07:49:35;;;;;;;10.02;5.35;;;18.40;99.90;;;;;;5116716;27;19939;-79
2022/05/17 07:52:02;;;;;;;13.15;5.43;;;18.50;99.90;;;;;;5148987;27;20400;-79
2022/05/17 07:54:28;;;;;;;14.25;5.47;;;18.50;99.90;;;;;;5149220;27;20445;-80
2022/05/17 07:56:53;;;;;;;12.48;5.20;;;18.50;99.90;;;;;;5148141;27;20830;-80
2022/05/17 07:59:19;;;;;;;8.65;4.25;;;18.60;99.90;;;;;;5132129;27;20134;-79
2022/05/17 08:01:45;;;;;;;11.95;4.80;;;18.60;99.90;;;;;;5143656;27;20042;-79
2022/05/17 08:04:11;;;;;;;16.08;4.95;;;18.60;99.90;;;;;;5127190;28;20090;-78
2022/05/17 08:06:38;;;;;;;12.95;4.72;;;18.70;99.90;;;;;;5130178;28;20046;-78
2022/05/17 08:09:04;;;;;;;11.35;5.32;;;18.80;99.90;;;;;;5121728;27;20047;-79
2022/05/17 08:11:30;;;;;;;12.85;3.70;;;18.90;99.90;;;;;;5132277;27;20080;-79
2022/05/17 08:13:56;;;;;;;13.88;3.67;;;19.00;99.90;;;;;;5150924;27;20039;-80
2022/05/17 08:16:22;;;;;;;13.35;4.80;;;19.20;99.90;;;;;;5129443;27;20409;-80
2022/05/17 08:18:48;;;;;;;12.80;4.90;;;19.30;99.90;;;;;;5149258;27;20391;-80
2022/05/17 08:21:13;;;;;;;11.90;4.15;;;19.40;99.90;;;;;;5149182;27;20898;-80
2022/05/17 08:23:39;;;;;;;10.47;4.13;;;19.50;99.90;;;;;;5148160;27;20405;-80
2022/05/17 08:28:49;;;;;;;13.18;4.30;;;19.40;99.90;;;;;;5149099;27;20407;-79
2022/05/17 08:31:14;;;;;;;10.45;3.75;;;19.40;99.90;;;;;;5129721;27;20429;-80
2022/05/17 08:33:40;;;;;;;12.50;4.05;;;19.40;99.90;;;;;;5146431;27;20555;-80
2022/05/17 08:36:09;;;;;;;11.10;3.80;;;19.40;99.90;;;;;;5132915;27;20816;-80
2022/05/17 08:38:41;;;;;;;10.55;3.90;;;19.40;99.90;;;;;;5128514;27;20401;-80
2022/05/17 08:41:12;;;;;;;11.20;3.80;;;19.50;99.90;;;;;;5147760;27;20385;-80
2022/05/17 08:43:54;;;;;;;11.98;3.67;;;19.60;99.90;;;;;;5145910;27;20405;-80
2022/05/17 08:46:29;;;;;;;9.60;3.53;;;19.70;99.90;;;;;;5148659;27;20510;-79
2022/05/17 08:49:13;;;;;;;;;;;19.90;99.90;;;;;;5149070;27;20103;-80
2022/05/17 08:51:41;;;;;;;;;;;20.00;99.90;;;;;;5138812;27;19965;-80
2022/05/17 08:54:08;;;;;;;;;;;20.00;99.90;;;;;;5135183;27;19923;-80
2022/05/17 08:56:36;;;;;;;;;;;20.10;99.90;;;;;;5125959;27;19930;-80
2022/05/17 08:59:04;;;;;;;;;;;20.20;99.90;;;;;;5150274;27;19923;-80
2022/05/17 09:01:36;;;;;;;;;;;20.10;99.90;;;;;;5145148;27;19919;-80
2022/05/17 09:04:10;;;;;;;;;;;20.10;99.90;;;;;;5135838;27;20292;-80
2022/05/17 09:06:42;;;;;;;;;;;20.10;99.90;;;;;;5143011;27;20300;-80
2022/05/17 09:09:16;;;;;;;;;;;20.20;99.90;;;;;;5125096;27;19926;-80
2022/05/17 09:12:00;;;;;;;;;;;20.30;99.90;;;;;;5125748;27;20418;-80
2022/05/17 09:14:29;;;;;;;;;;;20.50;99.90;;;;;;5118337;27;19923;-80
2022/05/17 09:16:59;;;;;;;;;;;20.40;99.90;;;;;;5152148;27;20592;-80
2022/05/17 09:19:25;;;;;;;;;;;20.40;99.90;;;;;;5141863;27;19992;-80
2022/05/17 09:21:53;;;;;;;;;;;20.40;99.90;;;;;;5119844;27;20469;-80
2022/05/17 09:24:20;;;;;;;;;;;20.60;99.90;;;;;;5116906;27;20403;-80
2022/05/17 09:26:51;;;;;;;;;;;20.90;99.90;;;;;;5132233;27;19927;-80
2022/05/17 09:29:23;;;;;;;11.50;3.40;;;21.30;99.90;;;;;;5114088;27;19926;-80
2022/05/17 09:31:51;;;;;;;;;;;21.60;99.90;;;;;;5133429;27;20376;-80
2022/05/17 09:34:20;;;;;;;;;;;21.60;99.90;;;;;;5115242;27;20324;-80
2022/05/17 09:36:52;;;;;;;;;;;21.40;99.90;;;;;;5146360;27;20002;-80
2022/05/17 09:39:22;;;;;;;8.75;2.65;;;21.30;99.90;;;;;;5144304;27;20110;-80
2022/05/17 09:41:49;;;;;;;9.77;2.80;;;21.50;99.90;;;;;;5147631;27;20413;-80
2022/05/17 09:44:20;;;;;;;;;;;21.70;99.90;;;;;;5153801;27;20043;-80
2022/05/17 09:46:49;;;;;;;;;;;21.80;99.90;;;;;;5133085;27;19922;-80
2022/05/17 09:55:12;;;;;;;;;;;22.90;99.90;;;;;;5021534;28;20072;-80
2022/05/17 09:57:49;;;;;;;;;;;23.30;99.90;;;;;;5029080;28;19968;-80
2022/05/17 10:00:20;;;;;;;;;;;23.20;99.90;;;;;;5090866;27;19954;-80
2022/05/17 10:02:49;;;;;;;;;;;22.90;99.90;;;;;;5133140;27;19919;-80
2022/05/17 10:05:26;;;;;;;;;;;22.90;99.90;;;;;;5114236;27;19919;-80
2022/05/17 10:07:53;;;;;;;;;;;23.30;99.90;;;;;;5125379;27;20025;-80
2022/05/17 10:10:26;;;;;;;;;;;23.60;99.60;;;;;;5150801;27;19926;-80
2022/05/17 10:12:56;;;;;;;;;;;23.50;99.80;;;;;;5144874;27;19981;-81
2022/05/17 10:15:22;;;;;;;;;;;23.40;99.80;;;;;;5150323;27;19927;-80
2022/05/17 10:17:51;;;;;;;;;;;23.70;99.90;;;;;;5151203;27;19923;-78
2022/05/17 10:20:17;;;;;;;;;;;24.00;99.50;;;;;;5152095;27;19919;-78
2022/05/17 10:22:48;;;;;;;;;;;24.10;98.80;;;;;;5151805;27;20304;-78
2022/05/17 10:25:20;;;;;;;;;;;24.00;98.40;;;;;;5151153;27;19934;-78
2022/05/17 10:27:49;;;;;;;;;;;23.90;98.60;;;;;;5145986;27;19984;-77
2022/05/17 10:30:16;;;;;;;;;;;23.80;98.70;;;;;;5148796;27;19942;-77
2022/05/17 10:32:50;;;;;;;;;;;24.20;98.80;;;;;;5145230;27;19919;-78
2022/05/17 10:35:27;;;;;;;;;;;24.70;98.30;;;;;;5151324;27;19923;-78
2022/05/17 10:37:58;;;;;;;;;;;25.10;97.10;;;;;;5143689;27;19941;-78
2022/05/17 10:40:26;;;;;;;;;;;25.40;96.50;;;;;;5152981;27;19919;-78
2022/05/17 10:42:52;;;;;;;;;;;25.60;96.00;;;;;;5144811;27;19972;-78
2022/05/17 10:45:22;;;;;;;;;;;25.90;96.20;;;;;;5132855;27;19923;-78
2022/05/17 10:47:53;;;;;;;;;;;26.20;95.20;;;;;;5132631;27;19968;-78
2022/05/17 10:50:22;;;;;;;;;;;26.50;94.00;;;;;;5151829;27;19918;-79
2022/05/17 10:52:53;;;;;;;;;;;26.60;93.90;;;;;;5151452;27;19996;-78
2022/05/17 10:55:19;;;;;;;;;;;26.50;92.80;;;;;;5133629;27;19926;-78
2022/05/17 10:57:56;;;;;;;;;;;26.40;92.40;;;;;;5152375;27;19923;-78
2022/05/17 11:00:26;;;;;;;;;;;26.40;92.20;;;;;;5132187;27;19976;-79
2022/05/17 11:03:12;;;;;;;;;;;26.30;92.80;;;;;;5151842;27;20375;-78
2022/05/17 11:05:44;;;;;;;;;;;26.60;92.90;;;;;;5151073;27;19962;-78
2022/05/17 11:08:22;;;;;;;;;;;26.80;92.00;;;;;;5133855;27;19950;-78
2022/05/17 11:10:54;;;;;;;;;;;26.80;90.90;;;;;;5152385;27;19926;-78
2022/05/17 11:13:19;;;;;;;;;;;26.60;90.60;;;;;;5123333;27;19979;-78
2022/05/17 11:15:54;;;;;;;;;;;26.30;90.80;;;;;;5151558;27;20329;-78
2022/05/17 11:18:28;;;;;;;;;;;25.90;92.10;;;;;;5133338;27;19971;-77
2022/05/17 11:20:56;;;;;;;;;;;25.60;92.40;;;;;;5152118;27;19919;-77
2022/05/17 11:23:22;;;;;;;;;;;25.40;92.80;;;;;;5133457;27;19933;-78
2022/05/17 11:25:47;;;;;;;;;;;25.40;93.00;;;;;;5133537;27;19961;-78
2022/05/17 11:28:24;;;;;;;;;;;25.30;92.10;;;;;;5148572;27;19953;-77
2022/05/17 11:30:55;;;;;;;;;;;25.10;92.40;;;;;;5133276;27;19988;-78
2022/05/17 11:33:20;;;;;;;;;;;24.90;92.60;;;;;;5151069;27;19941;-78
2022/05/17 11:35:45;;;;;;;;;;;24.70;92.90;;;;;;5148691;27;20400;-77
2022/05/17 11:38:17;;;;;;;;;;;24.60;93.10;;;;;;5139520;27;19923;-78
2022/05/17 11:40:49;;;;;;;;;;;24.90;93.30;;;;;;5139306;27;19919;-78
2022/05/17 11:43:42;;;;;;;;;;;25.30;93.40;;;;;;5116412;27;19926;-76
2022/05/17 11:46:30;;;;;;;10.65;2.63;;;25.60;92.30;;;;;;5122908;27;19919;-77
2022/05/17 11:48:55;;;;;;;;;;;25.40;91.90;;;;;;5123930;27;20038;-78
2022/05/17 11:51:21;;;;;;;;;;;25.20;92.20;;;;;;5151555;27;19934;-77
2022/05/17 11:53:48;;;;;;;;;;;24.90;92.30;;;;;;5151410;27;20625;-77
2022/05/17 11:56:26;;;;;;;;;;;24.60;92.60;;;;;;5150296;27;19919;-78
2022/05/17 11:58:53;;;;;;;;;;;24.40;93.10;;;;;;5133195;27;19919;-78
2022/05/17 12:01:31;;;;;;;10.60;2.50;;;24.60;94.10;;;;;;5150851;27;19933;-78
2022/05/17 12:04:26;;;;;;;10.18;2.10;;;25.10;93.70;;;;;;5150338;27;20042;-78
2022/05/17 12:06:52;;;;;;;;;;;25.40;92.80;;;;;;5151411;27;20050;-79
2022/05/17 12:09:23;;;;;;;;;;;25.70;92.10;;;;;;5151443;27;19926;-79
2022/05/17 12:12:24;;;;;;;;;;;25.80;91.80;;;;;;5135313;27;20006;-80
2022/05/17 12:15:20;;;;;;;13.05;2.28;;;25.90;91.50;;;;;;5075601;27;20026;-78
2022/05/17 12:17:48;;;;;;;;;;;26.00;91.00;;;;;;5145089;27;20683;-79
2022/05/17 12:20:17;;;;;;;;;;;25.90;90.90;;;;;;5137046;27;19925;-79
2022/05/17 12:22:51;;;;;;;;;;;25.70;90.50;;;;;;5146972;27;19928;-78
2022/05/17 12:25:20;;;;;;;;;;;25.50;90.50;;;;;;5132132;27;19923;-78
2022/05/17 12:27:46;;;;;;;;;;;25.30;91.40;;;;;;5139107;27;20460;-79
2022/05/17 12:33:09;;;;;;;9.57;2.42;;;25.50;92.10;;;;;;5150269;27;19930;-78
2022/05/17 12:35:35;;;;;;;8.85;1.83;;;25.60;91.20;;;;;;5136429;27;20050;-79
2022/05/17 12:38:00;;;;;;;8.93;2.42;;;25.80;89.60;;;;;;5147286;27;20046;-79
2022/05/17 12:43:21;;;;;;;7.70;1.73;;;25.80;89.80;;;;;;5153088;27;20126;-79
2022/05/17 12:45:47;;;;;;;;;;;26.00;87.60;;;;;;5152584;27;20034;-79
2022/05/17 12:48:34;;;;;;;;;;;26.20;87.20;;;;;;5153104;27;19926;-79
2022/05/17 12:51:04;;;;;;;;;;;26.60;86.80;;;;;;5152793;27;19919;-79
2022/05/17 12:53:43;;;;;;;;;;;27.00;84.80;;;;;;5149401;27;19923;-79
2022/05/17 12:56:11;;;;;;;;;;;27.20;84.20;;;;;;5149508;27;20420;-79
2022/05/17 12:58:46;;;;;;;;;;;27.30;81.80;;;;;;5153098;27;20670;-80
2022/05/17 13:01:13;;;;;;;;;;;27.30;81.00;;;;;;5153541;27;19927;-80
2022/05/17 13:03:41;;;;;;;;;;;27.50;81.90;;;;;;5153007;27;19976;-79
2022/05/17 13:06:07;;;;;;;;;;;27.60;80.00;;;;;;5140347;27;19965;-79
2022/05/17 13:08:38;;;;;;;;;;;27.90;79.70;;;;;;5154500;27;19970;-79
2022/05/17 13:11:23;;;;;;;;;;;28.00;77.20;;;;;;5140536;27;19926;-79
2022/05/17 13:13:49;;;;;;;;;;;28.20;77.90;;;;;;5134134;27;20451;-80
2022/05/17 13:16:16;;;;;;;;;;;28.20;74.60;;;;;;5141779;27;19926;-80
2022/05/17 13:18:44;;;;;;;;;;;28.30;77.00;;;;;;5149946;27;19962;-79
2022/05/17 13:21:21;;;;;;;;;;;28.40;75.20;;;;;;5148249;27;20276;-79
2022/05/17 13:23:47;;;;;;;;;;;28.60;76.30;;;;;;5151980;27;19975;-79
2022/05/17 13:26:14;;;;;;;;;;;28.80;72.60;;;;;;5135744;27;20006;-79
2022/05/17 13:28:39;;;;;;;;;;;28.70;69.70;;;;;;5154082;27;19983;-79
2022/05/17 13:31:14;;;;;;;;;;;28.70;68.80;;;;;;5153455;27;19919;-79
2022/05/17 13:33:52;;;;;;;;;;;28.50;68.00;;;;;;5133307;27;20002;-79
2022/05/17 13:36:29;;;;;;;;;;;28.40;66.10;;;;;;5139218;27;19919;-79
2022/05/17 13:38:55;;;;;;;;;;;28.50;67.60;;;;;;5133077;27;20289;-79